CYYD

Smithers Airport

Smithers, , Canada
METAR CYYD 152000Z 30003KT 25SM SCT120 BKN200 22/06 A3004 RMK AC4CI2 SLP175 DENSITY ALT 2800FT
Observed Flight Rules
Jul-15 @ 20:00 UTC (an hour ago) Visual Flight Rules
Wind Visibility Clouds
300° at 3 knots 25 miles
  • Scattered at 12,000' AGL
  • Broken at 20,000' AGL
Temperatures Readings
Current 22°C / 72°F
Dewpoint 6°C / 43°F
Humidity 36%
Altimeter 30.04" Hg
Pressure 1017.5 hPa
Elevation 523
METAR CYYD 152000Z 30003KT 25SM SCT120 BKN200 22/06 A3004 RMK AC4CI2 SLP175 DENSITY ALT 2800FT
Observed Flight Rules
Jul-15 @ 20:00 UTC
(an hour ago)
VFR
Wind Visibility
300° at 3 knots 25 miles
Clouds
  • Scattered at 12,000' AGL
  • Broken at 20,000' AGL
Temperature Dewpoint
22°C / 72°F 6°C / 43°F
Humidity Altimeter Pressure
36% 30.04" Hg 1017.5 hPa